Time;durP1;ratioP1;P1;durP2;ratioP2;P2;SDS_P1;SDS_P2;PMS_P1;PMS_P2;Temp;Humidity;BMP_temperature;BMP_pressure;BME280_temperature;BME280_humidity;BME280_pressure;Samples;Min_cycle;Max_cycle;Signal;HPM_P1;HPM_P2
2021/11/06 00:00:22;;;;;;;;;;;;;;;12.04;67.14;101698.50;4881018;28;129607;-57
2021/11/06 00:02:48;;;;;;;;;;;;;;;12.03;67.13;101696.88;4882893;28;98957;-65
2021/11/06 00:05:14;;;;;;;;;;;;;;;12.02;67.28;101695.25;4869364;28;97759;-57
2021/11/06 00:07:40;;;;;;;;;;;;;;;12.01;66.92;101698.97;4862999;28;118182;-65
2021/11/06 00:10:06;;;;;;;;;;;;;;;11.99;67.20;101697.63;4862956;28;123434;-64
2021/11/06 00:12:32;;;;;;;;;;;;;;;11.99;67.12;101703.03;4862183;28;119622;-65
2021/11/06 00:14:58;;;;;;;;;;;;;;;11.98;67.19;101710.28;4863477;28;98190;-57
2021/11/06 00:17:24;;;;;;;;;;;;;;;11.97;67.20;101708.66;4862286;28;116933;-57
2021/11/06 00:19:50;;;;;;;;;;;;;;;11.96;67.07;101715.13;4862130;28;128785;-65
2021/11/06 00:22:16;;;;;;;;;;;;;;;11.96;67.22;101714.31;4862341;28;129421;-65
2021/11/06 00:24:42;;;;;;;;;;;;;;;11.96;67.33;101714.31;4863553;28;98005;-65
2021/11/06 00:27:08;;;;;;;;;;;;;;;11.94;67.08;101717.25;4862228;28;117778;-57
2021/11/06 00:29:34;;;;;;;;;;;;;;;11.95;67.16;101718.91;4861824;28;125924;-57
2021/11/06 00:32:00;;;;;;;;;;;;;;;11.95;67.22;101715.38;4865856;28;99183;-57
2021/11/06 00:34:25;;;;;;;;;;;;;;;11.95;67.34;101708.09;4863211;28;126596;-65
2021/11/06 00:36:51;;;;;;;;;;;;;;;11.95;67.10;101716.19;4845724;28;117454;-65
2021/11/06 00:39:17;;;;;;;;;;;;;;;11.95;67.20;101709.97;4851050;28;105000;-57
2021/11/06 00:41:43;;;;;;;;;;;;;;;11.95;67.09;101707.28;4880619;28;112615;-58
2021/11/06 00:44:09;;;;;;;;;;;;;;;11.94;67.16;101706.44;4881879;28;127503;-57
2021/11/06 00:46:35;;;;;;;;;;;;;;;11.94;67.09;101697.50;4864036;28;98532;-57
2021/11/06 00:49:01;;;;;;;;;;;;;;;11.94;67.03;101705.63;4882246;28;98471;-65
2021/11/06 00:51:27;;;;;;;;;;;;;;;11.94;67.09;101700.22;4879185;28;119226;-65
2021/11/06 00:53:53;;;;;;;;;;;;;;;11.94;67.16;101702.91;4862433;28;127541;-65
2021/11/06 00:56:19;;;;;;;;;;;;;;;11.93;66.87;101710.22;4876742;28;116965;-65
2021/11/06 00:58:45;;;;;;;;;;;;;;;11.93;67.04;101702.09;4881932;28;99239;-65
2021/11/06 01:01:11;;;;;;;;;;;;;;;11.93;67.17;101702.09;4868959;28;128009;-58
2021/11/06 01:03:37;;;;;;;;;;;;;;;11.93;66.86;101698.59;4877482;28;98086;-57
2021/11/06 01:06:03;;;;;;;;;;;;;;;11.94;67.01;101708.31;4863051;28;116029;-57
2021/11/06 01:08:29;;;;;;;;;;;;;;;11.94;67.00;101705.63;4865263;28;128398;-57
2021/11/06 01:10:55;;;;;;;;;;;;;;;11.93;67.15;101704.00;4864848;28;129133;-65
2021/11/06 01:13:21;;;;;;;;;;;;;;;11.95;67.05;101707.28;4865337;28;125477;-57
2021/11/06 01:15:47;;;;;;;;;;;;;;;11.95;66.97;101704.56;4848366;28;98137;-57
2021/11/06 01:18:13;;;;;;;;;;;;;;;11.95;67.05;101700.00;4865338;28;98393;-65
2021/11/06 01:20:39;;;;;;;;;;;;;;;11.95;67.04;101705.38;4864664;28;129653;-65
2021/11/06 01:23:05;;;;;;;;;;;;;;;11.96;66.86;101712.44;4864802;28;125025;-65
2021/11/06 01:25:31;;;;;;;;;;;;;;;11.96;67.08;101717.00;4866140;28;98009;-57
2021/11/06 01:27:57;;;;;;;;;;;;;;;11.98;67.03;101722.97;4864672;28;112794;-57
2021/11/06 01:30:23;;;;;;;;;;;;;;;11.97;66.99;101715.94;4865973;28;110163;-65
2021/11/06 01:32:50;;;;;;;;;;;;;;;11.98;66.96;101728.38;4848000;28;98149;-65
2021/11/06 01:35:16;;;;;;;;;;;;;;;11.99;67.14;101724.63;4859722;28;97865;-65
2021/11/06 01:37:42;;;;;;;;;;;;;;;12.00;67.03;101732.50;4866144;28;98910;-57
2021/11/06 01:40:09;;;;;;;;;;;;;;;11.99;67.12;101725.44;4882582;28;98991;-65
2021/11/06 01:42:36;;;;;;;;;;;;;;;12.00;66.96;101729.78;4882864;28;121953;-65
2021/11/06 01:45:01;;;;;;;;;;;;;;;12.00;66.96;101723.56;4877836;28;109686;-65
2021/11/06 01:47:27;;;;;;;;;;;;;;;12.01;66.97;101728.72;4864804;28;103545;-65
2021/11/06 01:49:53;;;;;;;;;;;;;;;12.01;66.93;101728.72;4863790;28;129011;-65
2021/11/06 01:52:19;;;;;;;;;;;;;;;12.02;66.93;101730.38;4864016;28;125649;-57
2021/11/06 01:54:45;;;;;;;;;;;;;;;12.02;66.96;101730.38;4847784;28;117253;-65
2021/11/06 01:57:11;;;;;;;;;;;;;;;12.03;67.00;101731.19;4846426;28;128355;-57
2021/11/06 01:59:38;;;;;;;;;;;;;;;12.04;67.02;101741.75;4853848;28;115069;-65
2021/11/06 02:02:04;;;;;;;;;;;;;;;12.03;66.90;101737.41;4865426;28;126812;-65
2021/11/06 02:04:30;;;;;;;;;;;;;;;12.05;66.91;101739.84;4884642;28;97990;-57
2021/11/06 02:06:56;;;;;;;;;;;;;;;12.06;67.02;101732.56;4881720;28;126758;-65
2021/11/06 02:09:22;;;;;;;;;;;;;;;12.06;67.04;101737.97;4852150;28;99745;-57
2021/11/06 02:11:47;;;;;;;;;;;;;;;12.07;66.86;101745.03;4863830;28;126885;-65
2021/11/06 02:14:13;;;;;;;;;;;;;;;12.07;66.81;101736.91;4863335;28;98120;-57
2021/11/06 02:16:39;;;;;;;;;;;;;;;12.07;66.95;101745.84;4882147;28;128568;-65
2021/11/06 02:19:05;;;;;;;;;;;;;;;12.07;66.95;101745.84;4882974;28;127935;-65
2021/11/06 02:21:34;;;;;;;;;;;;;;;12.07;66.97;101739.63;4882742;28;127369;-57
2021/11/06 02:24:00;;;;;;;;;;;;;;;12.06;66.65;101741.47;4884130;28;97968;-65
2021/11/06 02:26:26;;;;;;;;;;;;;;;12.08;66.93;101743.94;4865852;28;98579;-57
2021/11/06 02:28:55;;;;;;;;;;;;;;;12.08;67.19;101742.06;4851474;28;98455;-67
2021/11/06 02:31:21;;;;;;;;;;;;;;;12.07;66.93;101740.44;4831455;28;98563;-57
2021/11/06 02:33:50;;;;;;;;;;;;;;;12.07;66.76;101735.03;4864204;28;97844;-65
2021/11/06 02:36:16;;;;;;;;;;;;;;;12.08;66.86;101739.38;4863905;28;117037;-65
2021/11/06 02:38:42;;;;;;;;;;;;;;;12.07;66.82;101742.31;4866220;28;98301;-65
2021/11/06 02:41:08;;;;;;;;;;;;;;;12.07;67.00;101737.72;4881440;28;119737;-65
2021/11/06 02:43:34;;;;;;;;;;;;;;;12.08;66.94;101735.84;4882335;28;114971;-57
2021/11/06 02:46:00;;;;;;;;;;;;;;;12.07;66.85;101736.91;4883079;28;128244;-65
2021/11/06 02:48:26;;;;;;;;;;;;;;;12.06;67.12;101741.47;4880329;28;128487;-65
2021/11/06 02:50:52;;;;;;;;;;;;;;;12.05;66.73;101756.06;4883315;28;116278;-58
2021/11/06 02:53:18;;;;;;;;;;;;;;;12.04;66.95;101749.84;4881179;28;103745;-65
2021/11/06 02:55:44;;;;;;;;;;;;;;;12.04;66.98;101749.84;4881040;28;98825;-57
2021/11/06 02:58:11;;;;;;;;;;;;;;;12.03;66.63;101748.22;4883066;28;100166;-65
2021/11/06 03:00:37;;;;;;;;;;;;;;;12.02;66.93;101749.28;4872982;28;98009;-65
2021/11/06 03:03:03;;;;;;;;;;;;;;;12.02;66.93;101754.69;4863896;28;97877;-57
2021/11/06 03:05:29;;;;;;;;;;;;;;;12.00;66.99;101753.28;4864319;28;98353;-65
2021/11/06 03:07:55;;;;;;;;;;;;;;;12.00;66.96;101758.69;4876107;28;127780;-65
2021/11/06 03:10:21;;;;;;;;;;;;;;;11.98;66.92;101748.13;4866275;28;125475;-65
2021/11/06 03:12:47;;;;;;;;;;;;;;;11.98;66.98;101750.00;4864818;28;99070;-57
2021/11/06 03:15:13;;;;;;;;;;;;;;;11.96;66.92;101758.38;4846736;28;98330;-65
2021/11/06 03:17:39;;;;;;;;;;;;;;;11.97;66.74;101767.28;4863289;28;101336;-57
2021/11/06 03:20:06;;;;;;;;;;;;;;;11.95;67.05;101762.13;4876262;28;100992;-65
2021/11/06 03:22:32;;;;;;;;;;;;;;;11.95;66.89;101772.94;4882513;28;99535;-57
2021/11/06 03:24:59;;;;;;;;;;;;;;;11.93;66.86;101775.06;4883035;28;98556;-57
2021/11/06 03:27:24;;;;;;;;;;;;;;;11.94;66.92;101775.88;4881406;28;118843;-57
2021/11/06 03:29:50;;;;;;;;;;;;;;;11.92;66.97;101767.22;4881083;28;126905;-57
2021/11/06 03:32:16;;;;;;;;;;;;;;;11.90;66.89;101770.13;4882028;28;117120;-57
2021/11/06 03:34:42;;;;;;;;;;;;;;;11.90;66.78;101772.84;4880290;28;121039;-65
2021/11/06 03:37:08;;;;;;;;;;;;;;;11.89;66.91;101773.91;4875463;28;128234;-58
2021/11/06 03:39:35;;;;;;;;;;;;;;;11.89;66.92;101783.91;4862774;28;127426;-65
2021/11/06 03:42:01;;;;;;;;;;;;;;;11.88;66.92;101779.56;4881568;28;98150;-57
2021/11/06 03:44:27;;;;;;;;;;;;;;;11.87;66.73;101784.16;4880840;28;118092;-66
2021/11/06 03:46:52;;;;;;;;;;;;;;;11.87;66.69;101780.59;4877453;28;108415;-65
2021/11/06 03:49:19;;;;;;;;;;;;;;;11.86;66.94;101776.28;4862332;28;128174;-65
2021/11/06 03:51:44;;;;;;;;;;;;;;;11.85;66.85;101772.75;4863235;28;112930;-57
2021/11/06 03:54:10;;;;;;;;;;;;;;;11.85;66.97;101769.25;4862989;28;106527;-65
2021/11/06 03:56:36;;;;;;;;;;;;;;;11.84;67.05;101773.84;4863272;28;127237;-65
2021/11/06 03:59:03;;;;;;;;;;;;;;;11.83;66.88;101771.31;4862972;28;98210;-57
2021/11/06 04:01:30;;;;;;;;;;;;;;;11.83;66.83;101780.31;4880602;28;97822;-57
2021/11/06 04:03:56;;;;;;;;;;;;;;;11.83;66.87;101782.13;4881607;28;104300;-57
2021/11/06 04:06:23;;;;;;;;;;;;;;;11.81;66.68;101785.09;4866834;28;128968;-57
2021/11/06 04:08:49;;;;;;;;;;;;;;;11.82;66.73;101780.50;4880789;28;99763;-65
2021/11/06 04:11:15;;;;;;;;;;;;;;;11.80;66.97;101786.97;4864389;28;98176;-65
2021/11/06 04:13:41;;;;;;;;;;;;;;;11.80;66.88;101784.28;4881639;28;128258;-65
2021/11/06 04:16:07;;;;;;;;;;;;;;;11.78;67.00;101772.06;4882157;28;98968;-57
2021/11/06 04:18:33;;;;;;;;;;;;;;;11.78;66.69;101780.97;4880609;28;128327;-64
2021/11/06 04:20:59;;;;;;;;;;;;;;;11.78;66.71;101789.09;4882523;28;111773;-65
2021/11/06 04:23:25;;;;;;;;;;;;;;;11.78;67.00;101799.88;4864592;28;99115;-65
2021/11/06 04:25:51;;;;;;;;;;;;;;;11.77;66.86;101797.44;4863507;28;125652;-57
2021/11/06 04:28:17;;;;;;;;;;;;;;;11.76;66.88;101782.31;4861753;28;127272;-57
2021/11/06 04:30:42;;;;;;;;;;;;;;;11.74;66.80;101781.72;4863569;28;103525;-57
2021/11/06 04:33:08;;;;;;;;;;;;;;;11.74;67.06;101795.22;4861201;28;129083;-65
2021/11/06 04:35:34;;;;;;;;;;;;;;;11.73;66.80;101794.41;4847476;28;128687;-65
2021/11/06 04:38:00;;;;;;;;;;;;;;;11.72;66.75;101789.25;4861556;28;119241;-65
2021/11/06 04:40:26;;;;;;;;;;;;;;;11.73;66.89;101788.19;4862279;28;116909;-65
2021/11/06 04:42:52;;;;;;;;;;;;;;;11.70;67.01;101797.59;4877466;28;127170;-65
2021/11/06 04:45:18;;;;;;;;;;;;;;;11.71;66.67;101793.00;4882687;28;126787;-65
2021/11/06 04:47:44;;;;;;;;;;;;;;;11.70;66.95;101792.19;4883381;28;127361;-65
2021/11/06 04:50:10;;;;;;;;;;;;;;;11.69;67.02;101790.56;4884702;28;118933;-65
2021/11/06 04:52:37;;;;;;;;;;;;;;;11.70;67.04;101796.78;4867473;28;98204;-58
2021/11/06 04:55:04;;;;;;;;;;;;;;;11.69;66.93;101797.84;4878219;28;98821;-57
2021/11/06 04:57:30;;;;;;;;;;;;;;;11.68;66.85;101797.03;4879629;28;97960;-65
2021/11/06 04:59:56;;;;;;;;;;;;;;;11.67;66.83;101795.41;4882911;28;119524;-57
2021/11/06 05:02:22;;;;;;;;;;;;;;;11.67;66.81;101795.41;4864839;28;126119;-66
2021/11/06 05:04:48;;;;;;;;;;;;;;;11.67;66.90;101808.06;4864857;28;128584;-57
2021/11/06 05:07:15;;;;;;;;;;;;;;;11.66;66.97;101812.63;4874152;28;98558;-57
2021/11/06 05:09:43;;;;;;;;;;;;;;;11.66;67.01;101811.81;4885029;28;97980;-58
2021/11/06 05:12:09;;;;;;;;;;;;;;;11.65;66.71;101808.31;4866708;28;98173;-58
2021/11/06 05:14:35;;;;;;;;;;;;;;;11.65;66.84;101810.19;4872178;28;118714;-57
2021/11/06 05:17:02;;;;;;;;;;;;;;;11.66;66.80;101814.53;4864831;28;114666;-65
2021/11/06 05:19:28;;;;;;;;;;;;;;;11.66;66.93;101812.63;4865632;28;97903;-65
2021/11/06 05:21:54;;;;;;;;;;;;;;;11.67;66.66;101813.47;4864633;28;99018;-64
2021/11/06 05:24:20;;;;;;;;;;;;;;;11.66;66.65;101807.22;4865917;28;99081;-64
2021/11/06 05:26:46;;;;;;;;;;;;;;;11.69;66.63;101811.34;4866129;28;98512;-64
2021/11/06 05:29:12;;;;;;;;;;;;;;;11.69;66.89;101814.03;4865087;28;111891;-65
2021/11/06 05:31:38;;;;;;;;;;;;;;;11.71;66.87;101820.84;4866275;28;98933;-58
2021/11/06 05:34:04;;;;;;;;;;;;;;;11.71;66.84;101806.50;4865819;28;98111;-65
2021/11/06 05:36:30;;;;;;;;;;;;;;;11.71;66.74;101804.66;4866355;28;113941;-58
2021/11/06 05:38:56;;;;;;;;;;;;;;;11.73;66.82;101813.31;4865881;28;97958;-65
2021/11/06 05:41:22;;;;;;;;;;;;;;;11.74;66.79;101804.16;4865731;28;128263;-59
2021/11/06 05:43:48;;;;;;;;;;;;;;;11.75;67.00;101804.97;4883680;28;128871;-57
2021/11/06 05:46:15;;;;;;;;;;;;;;;11.75;66.97;101811.22;4882294;28;98008;-65
2021/11/06 05:48:41;;;;;;;;;;;;;;;11.76;66.92;101820.94;4847301;28;98116;-65
2021/11/06 05:51:07;;;;;;;;;;;;;;;11.78;67.10;101826.09;4864690;28;128148;-65
2021/11/06 05:53:33;;;;;;;;;;;;;;;11.77;66.72;101819.88;4881672;28;129143;-65
2021/11/06 05:55:59;;;;;;;;;;;;;;;11.80;67.02;101814.00;4867761;28;113587;-65
2021/11/06 05:58:25;;;;;;;;;;;;;;;11.80;66.84;101818.56;4865071;28;117305;-65
2021/11/06 06:00:51;;;;;;;;;;;;;;;11.81;66.80;101817.50;4863564;28;128991;-65
2021/11/06 06:03:17;;;;;;;;;;;;;;;11.82;66.91;101829.13;4863732;28;126962;-65
2021/11/06 06:05:43;;;;;;;;;;;;;;;11.83;66.58;101818.13;4876926;28;98843;-65
2021/11/06 06:08:10;;;;;;;;;;;;;;;11.84;66.97;101822.47;4883725;28;98022;-65
2021/11/06 06:10:36;;;;;;;;;;;;;;;11.86;66.63;101824.91;4871929;28;98137;-65
2021/11/06 06:13:02;;;;;;;;;;;;;;;11.86;66.75;101835.72;4863338;28;127075;-65
2021/11/06 06:15:28;;;;;;;;;;;;;;;11.86;66.53;101824.91;4864183;28;113718;-65
2021/11/06 06:17:54;;;;;;;;;;;;;;;11.87;66.49;101830.09;4863550;28;118377;-65
2021/11/06 06:20:20;;;;;;;;;;;;;;;11.90;66.72;101843.09;4865197;28;98186;-65
2021/11/06 06:22:46;;;;;;;;;;;;;;;11.91;66.69;101836.66;4876338;28;110478;-65
2021/11/06 06:25:13;;;;;;;;;;;;;;;11.94;66.74;101836.13;4881607;28;127009;-65
2021/11/06 06:27:39;;;;;;;;;;;;;;;11.95;66.77;101836.97;4883449;28;97874;-65
2021/11/06 06:30:07;;;;;;;;;;;;;;;11.96;66.52;101835.91;4878013;28;100044;-65
2021/11/06 06:32:33;;;;;;;;;;;;;;;11.97;66.58;101832.94;4869407;28;98447;-65
2021/11/06 06:34:59;;;;;;;;;;;;;;;11.99;66.58;101844.34;4862622;28;127807;-65
2021/11/06 06:37:25;;;;;;;;;;;;;;;12.02;66.55;101837.63;4873550;28;119766;-65
2021/11/06 06:39:51;;;;;;;;;;;;;;;12.04;66.50;101840.91;4863981;28;120602;-65
2021/11/06 06:42:17;;;;;;;;;;;;;;;12.06;66.41;101824.44;4864095;28;116487;-65
2021/11/06 06:44:43;;;;;;;;;;;;;;;12.08;66.38;101830.44;4864177;28;98182;-65
2021/11/06 06:47:12;;;;;;;;;;;;;;;12.11;66.45;101829.97;4863503;28;110211;-65
2021/11/06 06:49:38;;;;;;;;;;;;;;;12.12;66.37;101835.09;4864963;28;99296;-65
2021/11/06 06:52:04;;;;;;;;;;;;;;;12.15;66.39;101842.75;4863263;28;119136;-65
2021/11/06 06:54:30;;;;;;;;;;;;;;;12.18;66.20;101844.09;4864050;28;123214;-65
2021/11/06 06:56:56;;;;;;;;;;;;;;;12.23;66.27;101844.22;4880349;28;115516;-65
2021/11/06 06:59:22;;;;;;;;;;;;;;;12.26;66.20;101859.91;4896601;28;128572;-65
2021/11/06 07:01:48;;;;;;;;;;;;;;;12.28;66.15;101869.44;4873380;28;128554;-66
2021/11/06 07:04:14;;;;;;;;;;;;;;;12.28;66.08;101855.09;4896891;28;98575;-65
2021/11/06 07:06:40;;;;;;;;;;;;;;;12.32;66.35;101860.84;4891985;28;104824;-65
2021/11/06 07:09:06;;;;;;;;;;;;;;;12.37;66.04;101867.16;4898311;28;110492;-66
2021/11/06 07:11:32;;;;;;;;;;;;;;;12.41;65.92;101867.47;4894161;28;98404;-65
2021/11/06 07:13:58;;;;;;;;;;;;;;;12.45;66.08;101871.31;4894313;28;98196;-65
2021/11/06 07:16:24;;;;;;;;;;;;;;;12.50;65.90;101872.25;4895387;28;98131;-65
2021/11/06 07:18:50;;;;;;;;;;;;;;;12.60;65.91;101876.97;4878377;28;98563;-65
2021/11/06 07:21:16;;;;;;;;;;;;;;;12.68;65.68;101875.75;4897229;28;127847;-65
2021/11/06 07:23:42;;;;;;;;;;;;;;;12.74;65.56;101874.78;4897208;28;126555;-65
2021/11/06 07:26:09;;;;;;;;;;;;;;;12.72;65.73;101877.72;4872538;28;98300;-65
2021/11/06 07:28:35;;;;;;;;;;;;;;;12.71;65.85;101869.84;4892476;28;99028;-65
2021/11/06 07:31:01;;;;;;;;;;;;;;;12.72;66.00;101872.28;4891646;28;127644;-65
2021/11/06 07:33:27;;;;;;;;;;;;;;;12.79;65.89;101877.53;4895821;28;124489;-66
2021/11/06 07:35:53;;;;;;;;;;;;;;;12.84;65.71;101865.97;4897638;28;115488;-65
2021/11/06 07:38:19;;;;;;;;;;;;;;;12.85;65.80;101883.84;4887737;28;127836;-65
2021/11/06 07:40:45;;;;;;;;;;;;;;;12.90;65.67;101876.63;4889060;28;126150;-65
2021/11/06 07:43:11;;;;;;;;;;;;;;;12.97;65.80;101879.16;4894985;28;128059;-64
2021/11/06 07:45:37;;;;;;;;;;;;;;;12.98;65.67;101878.91;4896380;28;98099;-65
2021/11/06 07:48:03;;;;;;;;;;;;;;;13.07;65.57;101876.59;4888444;28;127252;-65
2021/11/06 07:50:30;;;;;;;;;;;;;;;13.08;65.43;101880.13;4891278;28;119069;-65
2021/11/06 07:52:56;;;;;;;;;;;;;;;13.10;65.58;101886.94;4892914;28;98613;-65
2021/11/06 07:55:21;;;;;;;;;;;;;;;13.12;65.53;101883.94;4894022;28;111649;-65
2021/11/06 07:57:47;;;;;;;;;;;;;;;13.15;65.48;101883.47;4896784;28;120314;-65
2021/11/06 08:00:15;;;;;;;;;;;;;;;13.20;65.67;101895.19;4897505;28;120205;-65
2021/11/06 08:02:41;;;;;;;;;;;;;;;13.27;65.59;101889.59;4897090;28;122492;-66
2021/11/06 08:05:08;;;;;;;;;;;;;;;13.34;65.44;101892.13;4897390;28;107791;-65
2021/11/06 08:07:34;;;;;;;;;;;;;;;13.41;65.36;101882.75;4888894;28;118692;-65
2021/11/06 08:10:00;;;;;;;;;;;;;;;13.50;64.96;101883.94;4892613;28;98589;-65
2021/11/06 08:12:27;;;;;;;;;;;;;;;13.57;65.28;101880.25;4889340;28;100365;-65
2021/11/06 08:14:53;;;;;;;;;;;;;;;13.60;65.02;101877.84;4897550;28;98033;-65
2021/11/06 08:17:19;;;;;;;;;;;;;;;13.70;65.06;101882.53;4896032;28;127157;-65
2021/11/06 08:19:45;;;;;;;;;;;;;;;13.79;64.95;101881.00;4899112;28;128153;-65
2021/11/06 08:22:11;;;;;;;;;;;;;;;13.87;64.62;101880.59;4895316;28;127521;-65
2021/11/06 08:24:38;;;;;;;;;;;;;;;14.00;64.54;101871.22;4893260;28;98137;-66
2021/11/06 08:27:04;;;;;;;;;;;;;;;14.13;64.26;101872.69;4891655;28;123888;-65
2021/11/06 08:29:30;;;;;;;;;;;;;;;14.29;64.46;101870.94;4899472;28;102677;-65
2021/11/06 08:31:58;;;;;;;;;;;;;;;14.45;63.87;101870.78;4898522;28;127932;-57
2021/11/06 08:34:25;;;;;;;;;;;;;;;14.65;63.97;101867.44;4895691;28;98192;-65
2021/11/06 08:36:51;;;;;;;;;;;;;;;14.85;63.32;101864.03;4887757;28;98388;-65
2021/11/06 08:39:19;;;;;;;;;;;;;;;15.09;63.31;101858.19;4882015;28;121541;-57
2021/11/06 08:41:46;;;;;;;;;;;;;;;15.35;62.67;101856.44;4892706;28;97807;-59
2021/11/06 08:44:14;;;;;;;;;;;;;;;15.70;62.27;101853.84;4896400;28;106216;-66
2021/11/06 08:46:41;;;;;;;;;;;;;;;15.86;62.12;101865.56;4892129;28;117133;-57
2021/11/06 08:49:08;;;;;;;;;;;;;;;15.95;62.28;101858.53;4883545;28;100064;-57
2021/11/06 08:51:34;;;;;;;;;;;;;;;15.97;62.43;101863.69;4895526;28;98524;-57
2021/11/06 08:54:00;;;;;;;;;;;;;;;15.94;62.55;101856.06;4890670;28;118435;-58
2021/11/06 08:56:28;;;;;;;;;;;;;;;15.88;62.79;101849.81;4880345;28;100352;-57
2021/11/06 08:58:55;;;;;;;;;;;;;;;15.85;62.76;101844.91;4891355;28;98589;-57
2021/11/06 09:01:21;;;;;;;;;;;;;;;15.90;63.02;101854.97;4899783;28;98146;-65
2021/11/06 09:03:47;;;;;;;;;;;;;;;15.95;62.62;101857.69;4898464;28;116610;-65
2021/11/06 09:06:13;;;;;;;;;;;;;;;16.01;62.77;101851.19;4896675;28;128785;-57
2021/11/06 09:08:42;;;;;;;;;;;;;;;16.08;62.80;101861.81;4889946;28;127081;-65
2021/11/06 09:11:10;;;;;;;;;;;;;;;16.15;62.53;101865.91;4900276;28;98168;-65
2021/11/06 09:13:36;;;;;;;;;;;;;;;16.23;62.64;101859.09;4881369;28;98168;-64
2021/11/06 09:16:03;;;;;;;;;;;;;;;16.35;62.39;101864.28;4878771;28;123315;-58
2021/11/06 09:18:30;;;;;;;;;;;;;;;16.44;62.26;101859.91;4899972;28;98453;-65
2021/11/06 09:20:55;;;;;;;;;;;;;;;16.50;62.32;101868.88;4900218;28;98464;-58
2021/11/06 09:23:25;;;;;;;;;;;;;;;16.56;62.34;101856.91;4895283;28;105738;-64
2021/11/06 09:25:51;;;;;;;;;;;;;;;16.69;62.15;101859.06;4897716;28;99100;-65
2021/11/06 09:28:17;;;;;;;;;;;;;;;16.78;62.12;101856.63;4898690;28;118307;-58
2021/11/06 09:30:43;;;;;;;;;;;;;;;16.82;62.23;101860.41;4899425;28;126545;-57
2021/11/06 09:33:11;;;;;;;;;;;;;;;16.84;62.37;101869.16;4889524;28;98176;-58
2021/11/06 09:35:36;;;;;;;;;;;;;;;16.83;62.42;101871.06;4897205;28;128485;-57
2021/11/06 09:38:02;;;;;;;;;;;;;;;16.82;62.40;101869.44;4892913;28;125169;-58
2021/11/06 09:40:28;;;;;;;;;;;;;;;16.80;62.48;101868.88;4875099;28;127384;-57
2021/11/06 09:42:54;;;;;;;;;;;;;;;16.85;62.54;101870.75;4899883;28;117652;-65
2021/11/06 09:45:20;;;;;;;;;;;;;;;16.85;62.59;101873.50;4882076;28;98439;-66
2021/11/06 09:47:47;;;;;;;;;;;;;;;16.91;62.39;101867.78;4886793;28;128343;-58
2021/11/06 09:50:17;;;;;;;;;;;;;;;17.00;62.26;101869.94;4897377;28;98176;-66
2021/11/06 09:52:47;;;;;;;;;;;;;;;16.95;62.60;101869.94;4892017;28;97902;-58
2021/11/06 09:55:15;;;;;;;;;;;;;;;16.92;62.81;101866.66;4892248;28;99304;-58
2021/11/06 09:57:41;;;;;;;;;;;;;;;16.88;63.11;101870.22;4878434;28;98722;-65
2021/11/06 10:00:08;;;;;;;;;;;;;;;16.90;63.04;101868.88;4890613;28;127265;-58
2021/11/06 10:02:33;;;;;;;;;;;;;;;16.91;62.89;101870.50;4880715;28;114109;-66
2021/11/06 10:05:00;;;;;;;;;;;;;;;16.99;62.84;101862.84;4858883;28;128193;-66
2021/11/06 10:07:26;;;;;;;;;;;;;;;17.05;62.86;101867.19;4881359;28;99269;-57
2021/11/06 10:09:58;;;;;;;;;;;;;;;17.12;62.70;101865.78;4893149;28;98234;-65
2021/11/06 10:12:25;;;;;;;;;;;;;;;17.23;62.74;101866.56;4899141;28;97944;-59
2021/11/06 10:15:09;;;;;;;;;;;;;;;17.35;62.38;101861.63;4898268;28;121777;-65
2021/11/06 10:17:35;;;;;;;;;;;;;;;17.44;62.17;101853.66;4894379;28;124275;-58
2021/11/06 10:20:21;;;;;;;;;;;;;;;17.54;62.46;101853.63;4900022;28;97741;-57
2021/11/06 10:22:47;;;;;;;;;;;;;;;17.69;62.15;101852.75;4893263;28;98275;-66
2021/11/06 10:25:14;;;;;;;;;;;;;;;17.79;62.26;101855.41;4880302;28;126124;-58
2021/11/06 10:27:47;;;;;;;;;;;;;;;17.85;62.14;101854.31;4889048;28;99266;-58
2021/11/06 10:30:19;;;;;;;;;;;;;;;17.95;62.04;101847.13;4894531;28;98997;-58
2021/11/06 10:32:59;;;;;;;;;;;;;;;18.01;62.15;101851.47;4881980;28;98064;-58
2021/11/06 10:35:26;;;;;;;;;;;;;;;18.05;61.94;101844.34;4883574;28;99073;-65
2021/11/06 10:38:22;;;;;;;;;;;;;;;18.04;62.05;101846.28;4894783;28;98787;-57
2021/11/06 10:40:50;;;;;;;;;;;;;;;18.05;62.28;101841.63;4876997;28;106346;-57
2021/11/06 10:43:18;;;;;;;;;;;;;;;18.05;62.39;101850.63;4896657;28;98102;-65
2021/11/06 10:45:49;;;;;;;;;;;;;;;18.06;62.26;101848.69;4880582;28;98587;-58
2021/11/06 10:48:16;;;;;;;;;;;;;;;18.11;62.06;101841.28;4880445;28;99351;-65
2021/11/06 10:51:03;;;;;;;;;;;;;;;18.21;62.00;101845.84;4871566;28;98056;-58
2021/11/06 10:53:45;;;;;;;;;;;;;;;18.29;61.81;101842.50;4897614;28;97981;-57
2021/11/06 10:56:14;;;;;;;;;;;;;;;18.30;61.90;101844.13;4889288;28;98529;-58
2021/11/06 10:58:41;;;;;;;;;;;;;;;18.26;62.21;101840.34;4894301;28;98347;-58
2021/11/06 11:01:09;;;;;;;;;;;;;;;18.22;62.27;101841.22;4875925;28;98916;-58
2021/11/06 11:03:38;;;;;;;;;;;;;;;18.18;62.50;101837.41;4897678;28;112847;-58
2021/11/06 11:06:28;;;;;;;;;;;;;;;18.13;62.69;101841.81;4894653;28;98100;-57
2021/11/06 11:08:55;;;;;;;;;;;;;;;18.08;62.75;101836.41;4890958;28;98552;-58
2021/11/06 11:11:24;;;;;;;;;;;;;;;18.05;62.60;101838.91;4895741;28;97890;-58
2021/11/06 11:13:57;;;;;;;;;;;;;;;18.00;62.95;101834.28;4890390;28;98200;-57
2021/11/06 11:16:23;;;;;;;;;;;;;;;17.97;62.85;101823.94;4896472;28;99370;-58
2021/11/06 11:18:50;;;;;;;;;;;;;;;17.97;62.93;101823.94;4876408;28;99052;-57
2021/11/06 11:21:17;;;;;;;;;;;;;;;17.98;62.88;101816.56;4898352;28;122574;-57
2021/11/06 11:23:48;;;;;;;;;;;;;;;17.94;62.83;101816.31;4870896;28;98213;-58
2021/11/06 11:26:15;;;;;;;;;;;;;;;17.95;62.79;101814.41;4871056;28;98157;-65
2021/11/06 11:28:41;;;;;;;;;;;;;;;17.98;62.76;101817.38;4898091;28;99153;-65
2021/11/06 11:31:07;;;;;;;;;;;;;;;17.89;62.97;101811.72;4897846;28;113234;-65
2021/11/06 11:33:35;;;;;;;;;;;;;;;17.77;63.16;101814.00;4889163;28;117283;-65
2021/11/06 11:36:01;;;;;;;;;;;;;;;17.71;63.20;101812.34;4897728;28;98190;-66
2021/11/06 11:38:27;;;;;;;;;;;;;;;17.66;63.19;101810.47;4852603;28;128640;-65
2021/11/06 11:41:30;;;;;;;;;;;;;;;17.66;63.12;101812.41;4893355;28;99194;-57
2021/11/06 11:44:03;;;;;;;;;;;;;;;17.52;63.47;101806.75;4895293;28;98138;-66
2021/11/06 11:46:40;;;;;;;;;;;;;;;17.42;63.49;101796.72;4874154;28;98945;-57
2021/11/06 11:49:06;;;;;;;;;;;;;;;17.42;63.34;101799.44;4865809;28;98379;-66
2021/11/06 11:51:32;;;;;;;;;;;;;;;17.43;63.38;101798.34;4869490;28;98064;-57
2021/11/06 11:54:05;;;;;;;;;;;;;;;17.41;63.29;101797.03;4881710;28;97979;-66
2021/11/06 11:56:32;;;;;;;;;;;;;;;17.36;63.56;101805.19;4895612;28;125385;-65
2021/11/06 11:58:57;;;;;;;;;;;;;;;17.34;63.45;101801.97;4889752;28;98033;-58
2021/11/06 12:01:24;;;;;;;;;;;;;;;17.31;63.34;101803.31;4860916;28;99942;-58
2021/11/06 12:03:50;;;;;;;;;;;;;;;17.33;63.39;101806.59;4897927;28;102508;-60
2021/11/06 12:06:22;;;;;;;;;;;;;;;17.36;63.23;101806.00;4882558;28;99001;-58
2021/11/06 12:09:18;;;;;;;;;;;;;;;17.30;63.30;101809.88;4889873;28;98041;-66
2021/11/06 12:11:49;;;;;;;;;;;;;;;17.30;63.39;101809.88;4891612;28;98156;-62
2021/11/06 12:14:23;;;;;;;;;;;;;;;17.23;63.52;101801.19;4892560;28;98894;-66
2021/11/06 12:17:09;;;;;;;;;;;;;;;17.16;63.38;101806.13;4897706;28;98104;-65
2021/11/06 12:19:46;;;;;;;;;;;;;;;17.03;63.62;101795.84;4896378;28;128755;-66
2021/11/06 12:22:16;;;;;;;;;;;;;;;16.98;63.71;101799.41;4889982;28;98116;-65
2021/11/06 12:24:43;;;;;;;;;;;;;;;16.93;63.61;101789.31;4897607;28;97880;-58
2021/11/06 12:27:11;;;;;;;;;;;;;;;16.96;63.54;101782.50;4881265;28;98338;-57
2021/11/06 12:29:49;;;;;;;;;;;;;;;16.96;63.56;101787.13;4876876;28;99005;-65